createdAt,value
2023-05-19T00:00:10.666Z,21.87
2023-05-19T00:00:42.248Z,21.88
2023-05-19T00:01:13.982Z,21.87
2023-05-19T00:01:45.635Z,21.86
2023-05-19T00:02:17.321Z,21.87
2023-05-19T00:02:49.128Z,21.87
2023-05-19T00:03:20.918Z,21.87
2023-05-19T00:03:53.083Z,21.87
2023-05-19T00:04:24.735Z,21.87
2023-05-19T00:04:56.338Z,21.87
2023-05-19T00:05:28.185Z,21.88
2023-05-19T00:06:02.026Z,21.88
2023-05-19T00:06:33.634Z,21.88
2023-05-19T00:07:05.289Z,21.89
2023-05-19T00:07:37.494Z,21.88
2023-05-19T00:08:09.023Z,21.88
2023-05-19T00:08:40.619Z,21.88
2023-05-19T00:09:12.201Z,21.88
2023-05-19T00:09:43.904Z,21.89
2023-05-19T00:10:15.832Z,21.89
2023-05-19T00:10:47.534Z,21.88
2023-05-19T00:11:19.177Z,21.89
2023-05-19T00:11:50.826Z,21.88
2023-05-19T00:12:22.489Z,21.89
2023-05-19T00:12:54.175Z,21.88
2023-05-19T00:13:25.915Z,21.90
2023-05-19T00:13:58.236Z,21.90
2023-05-19T00:14:29.849Z,21.89
2023-05-19T00:15:01.505Z,21.88
2023-05-19T00:15:33.190Z,21.89
2023-05-19T00:16:04.920Z,21.88
2023-05-19T00:16:36.712Z,21.88
2023-05-19T00:17:08.493Z,21.87
2023-05-19T00:17:40.115Z,21.86
2023-05-19T00:18:11.713Z,21.87
2023-05-19T00:18:43.293Z,21.86
2023-05-19T00:19:14.946Z,21.86
2023-05-19T00:19:46.477Z,21.87
2023-05-19T00:20:18.075Z,21.87
2023-05-19T00:20:49.606Z,21.87
2023-05-19T00:21:21.190Z,21.87
2023-05-19T00:21:52.740Z,21.88
2023-05-19T00:22:24.257Z,21.88
2023-05-19T00:22:55.797Z,21.88
2023-05-19T00:23:27.541Z,21.88
2023-05-19T00:23:59.050Z,21.88
2023-05-19T00:24:30.514Z,21.87
2023-05-19T00:25:02.000Z,21.89
2023-05-19T00:25:33.510Z,21.88
2023-05-19T00:26:05.016Z,21.87
2023-05-19T00:26:36.471Z,21.86
2023-05-19T00:27:07.951Z,21.87
2023-05-19T00:27:39.405Z,21.86
2023-05-19T00:28:10.902Z,21.87
2023-05-19T00:28:42.380Z,21.86
2023-05-19T00:29:13.827Z,21.87
2023-05-19T00:29:45.310Z,21.87
2023-05-19T00:30:16.866Z,21.89
2023-05-19T00:30:48.375Z,21.88
2023-05-19T00:31:19.896Z,21.86
2023-05-19T00:31:51.458Z,21.86
2023-05-19T00:32:23.109Z,21.87
2023-05-19T00:32:54.853Z,21.87
2023-05-19T00:33:26.381Z,21.86
2023-05-19T00:33:57.893Z,21.87
2023-05-19T00:34:29.420Z,21.87
2023-05-19T00:35:00.900Z,21.86
2023-05-19T00:35:32.387Z,21.86
2023-05-19T00:36:04.105Z,21.87
2023-05-19T00:36:35.705Z,21.87
2023-05-19T00:37:07.152Z,21.87
2023-05-19T00:37:38.649Z,21.88
2023-05-19T00:38:10.154Z,21.86
2023-05-19T00:38:41.679Z,21.86
2023-05-19T00:39:13.161Z,21.87
2023-05-19T00:39:44.655Z,21.86
2023-05-19T00:40:16.214Z,21.86
2023-05-19T00:40:47.757Z,21.86
2023-05-19T00:41:19.338Z,21.85
2023-05-19T00:41:50.841Z,21.86
2023-05-19T00:42:22.341Z,21.86
2023-05-19T00:42:53.822Z,21.87
2023-05-19T00:43:25.506Z,21.87
2023-05-19T00:43:57.016Z,21.86
2023-05-19T00:44:28.522Z,21.87
2023-05-19T00:45:00.068Z,21.86
2023-05-19T00:45:31.586Z,21.85
2023-05-19T00:46:03.375Z,21.85
2023-05-19T00:46:34.980Z,21.86
2023-05-19T00:47:06.879Z,21.87
2023-05-19T00:47:39.161Z,21.86
2023-05-19T00:48:10.874Z,21.86
2023-05-19T00:48:42.495Z,21.87
2023-05-19T00:49:14.034Z,21.86
2023-05-19T00:49:45.582Z,21.86
2023-05-19T00:50:17.079Z,21.87
2023-05-19T00:50:49.084Z,21.87
2023-05-19T00:51:20.625Z,21.87
2023-05-19T00:51:52.117Z,21.86
2023-05-19T00:52:23.574Z,21.87
2023-05-19T00:52:55.698Z,21.87
2023-05-19T00:53:27.179Z,21.87
2023-05-19T00:53:58.645Z,21.87
2023-05-19T00:54:30.220Z,21.87
2023-05-19T00:55:01.810Z,21.86
2023-05-19T00:55:33.388Z,21.86
2023-05-19T00:56:04.926Z,21.86
2023-05-19T00:56:36.515Z,21.86
2023-05-19T00:57:08.032Z,21.86
2023-05-19T00:57:39.550Z,21.86
2023-05-19T00:58:11.333Z,21.86
2023-05-19T00:58:42.886Z,21.86
2023-05-19T00:59:14.396Z,21.86
2023-05-19T00:59:45.984Z,21.85
2023-05-19T01:00:17.456Z,21.88
2023-05-19T01:00:49.084Z,21.88
2023-05-19T01:01:20.635Z,21.87
2023-05-19T01:01:52.300Z,21.86
2023-05-19T01:02:23.828Z,21.87
2023-05-19T01:02:55.540Z,21.88
2023-05-19T01:03:27.248Z,21.87
2023-05-19T01:03:59.220Z,21.87
2023-05-19T01:04:30.934Z,21.87
2023-05-19T01:05:02.465Z,21.88
2023-05-19T01:05:33.988Z,21.88
2023-05-19T01:06:05.588Z,21.88
2023-05-19T01:06:37.316Z,21.87
2023-05-19T01:07:08.861Z,21.88
2023-05-19T01:07:40.951Z,21.86
2023-05-19T01:08:12.502Z,21.87
2023-05-19T01:08:44.012Z,21.88
2023-05-19T01:09:15.812Z,21.87
2023-05-19T01:09:47.324Z,21.87
2023-05-19T01:10:21.237Z,21.86
2023-05-19T01:10:52.722Z,21.87
2023-05-19T01:11:24.216Z,21.87
2023-05-19T01:11:55.865Z,21.87
2023-05-19T01:12:27.434Z,21.87
2023-05-19T01:12:58.973Z,21.87
2023-05-19T01:13:30.753Z,21.88
2023-05-19T01:14:02.357Z,21.89
2023-05-19T01:14:33.930Z,21.89
2023-05-19T01:15:05.835Z,21.88
2023-05-19T01:15:49.911Z,21.89
2023-05-19T01:16:39.746Z,21.89
2023-05-19T01:17:19.688Z,21.90
2023-05-19T01:18:11.732Z,21.90
2023-05-19T01:18:44.202Z,21.89
2023-05-19T01:19:51.163Z,21.87
2023-05-19T01:20:24.366Z,21.86
2023-05-19T01:20:58.746Z,21.87
2023-05-19T01:21:39.295Z,21.87
2023-05-19T01:22:13.061Z,21.88
2023-05-19T01:22:47.897Z,21.88
2023-05-19T01:23:32.444Z,21.87
2023-05-19T01:24:18.789Z,21.87
2023-05-19T01:25:07.202Z,21.89
2023-05-19T01:25:57.692Z,21.88
2023-05-19T01:26:48.114Z,21.89
2023-05-19T01:27:32.133Z,21.87
2023-05-19T01:28:22.035Z,21.87
2023-05-19T01:29:01.377Z,21.87
2023-05-19T01:29:35.839Z,21.88
2023-05-19T01:30:13.126Z,21.89
2023-05-19T01:30:44.749Z,21.89
2023-05-19T01:31:16.369Z,21.89
2023-05-19T01:31:48.149Z,21.89
2023-05-19T01:32:19.778Z,21.88
2023-05-19T01:32:52.072Z,21.89
2023-05-19T01:33:23.815Z,21.88
2023-05-19T01:33:55.332Z,21.87
2023-05-19T01:34:26.997Z,21.88
2023-05-19T01:34:58.503Z,21.88
2023-05-19T01:35:30.121Z,21.89
2023-05-19T01:36:02.702Z,21.90
2023-05-19T01:36:34.222Z,21.89
2023-05-19T01:37:05.736Z,21.88
2023-05-19T01:37:37.516Z,21.89
2023-05-19T01:38:09.472Z,21.89
2023-05-19T01:38:41.021Z,21.89
2023-05-19T01:39:12.554Z,21.90
2023-05-19T01:39:44.280Z,21.89
2023-05-19T01:40:15.777Z,21.90
2023-05-19T01:40:47.390Z,21.88
2023-05-19T01:41:19.433Z,21.89
2023-05-19T01:41:50.995Z,21.88
2023-05-19T01:42:22.491Z,21.88
2023-05-19T01:42:57.318Z,21.88
2023-05-19T01:43:29.148Z,21.87
2023-05-19T01:44:00.669Z,21.86
2023-05-19T01:44:32.187Z,21.87
2023-05-19T01:45:04.164Z,21.87
2023-05-19T01:45:35.715Z,21.87
2023-05-19T01:46:07.304Z,21.89
2023-05-19T01:46:39.038Z,21.89
2023-05-19T01:47:10.537Z,21.90
2023-05-19T01:47:42.697Z,21.89
2023-05-19T01:48:14.382Z,21.90
2023-05-19T01:48:45.997Z,21.89
2023-05-19T01:49:17.527Z,21.89
2023-05-19T01:49:49.126Z,21.88
2023-05-19T01:50:20.777Z,21.89
2023-05-19T01:50:52.373Z,21.88
2023-05-19T01:51:23.948Z,21.90
2023-05-19T01:51:55.866Z,21.89
2023-05-19T01:52:27.421Z,21.90
2023-05-19T01:52:59.659Z,21.88
2023-05-19T01:53:31.156Z,21.88
2023-05-19T01:54:02.774Z,21.88
2023-05-19T01:54:34.421Z,21.89
2023-05-19T01:55:06.249Z,21.88
2023-05-19T01:55:42.563Z,21.88
2023-05-19T01:56:15.147Z,21.88
2023-05-19T01:56:49.838Z,21.89
2023-05-19T01:57:24.624Z,21.89
2023-05-19T01:58:05.026Z,21.88
2023-05-19T01:58:36.540Z,21.89
2023-05-19T01:59:23.085Z,21.88
2023-05-19T02:00:00.556Z,21.89
2023-05-19T02:00:35.167Z,21.88
2023-05-19T02:01:06.826Z,21.88
2023-05-19T02:01:41.898Z,21.88
2023-05-19T02:02:16.973Z,21.88
2023-05-19T02:02:55.387Z,21.88
2023-05-19T02:03:37.040Z,21.89
2023-05-19T02:04:27.360Z,21.88
2023-05-19T02:05:00.201Z,21.89
2023-05-19T02:05:35.148Z,21.89
2023-05-19T02:06:06.658Z,21.90
2023-05-19T02:06:52.955Z,21.90
2023-05-19T02:07:31.120Z,21.90
2023-05-19T02:08:13.384Z,21.91
2023-05-19T02:08:50.999Z,21.91
2023-05-19T02:09:54.715Z,21.91
2023-05-19T02:10:29.180Z,21.91
2023-05-19T02:11:01.647Z,21.91
2023-05-19T02:11:36.704Z,21.91
2023-05-19T02:12:24.051Z,21.90
2023-05-19T02:12:55.636Z,21.90
2023-05-19T02:13:29.193Z,21.90
2023-05-19T02:14:01.251Z,21.91
2023-05-19T02:14:35.860Z,21.90
2023-05-19T02:15:09.762Z,21.89
2023-05-19T02:15:41.681Z,21.91
2023-05-19T02:16:13.229Z,21.91
2023-05-19T02:16:45.326Z,21.91
2023-05-19T02:17:16.910Z,21.91
2023-05-19T02:17:48.709Z,21.92
2023-05-19T02:18:20.425Z,21.92
2023-05-19T02:18:52.083Z,21.91
2023-05-19T02:19:24.374Z,21.91
2023-05-19T02:19:56.460Z,21.92
2023-05-19T02:20:27.964Z,21.92
2023-05-19T02:20:59.545Z,21.92
2023-05-19T02:21:31.009Z,21.92
2023-05-19T02:22:02.564Z,21.92
2023-05-19T02:22:34.261Z,21.91
2023-05-19T02:23:05.820Z,21.91
2023-05-19T02:23:37.412Z,21.90
2023-05-19T02:24:09.030Z,21.89
2023-05-19T02:24:40.589Z,21.88
2023-05-19T02:25:12.129Z,21.90
2023-05-19T02:25:43.695Z,21.91
2023-05-19T02:26:15.184Z,21.91
2023-05-19T02:26:46.762Z,21.91
2023-05-19T02:27:18.286Z,21.90
2023-05-19T02:27:50.861Z,21.91
2023-05-19T02:28:22.411Z,21.91
2023-05-19T02:28:53.988Z,21.92
2023-05-19T02:29:25.590Z,21.92
2023-05-19T02:29:57.120Z,21.91
2023-05-19T02:30:28.710Z,21.91
2023-05-19T02:31:00.306Z,21.91
2023-05-19T02:31:31.941Z,21.91
2023-05-19T02:32:03.562Z,21.92
2023-05-19T02:32:35.219Z,21.92
2023-05-19T02:33:09.428Z,21.90
2023-05-19T02:33:40.997Z,21.91
2023-05-19T02:34:12.601Z,21.92
2023-05-19T02:34:44.307Z,21.92
2023-05-19T02:35:15.901Z,21.92
2023-05-19T02:35:47.517Z,21.91
2023-05-19T02:36:19.089Z,21.92
2023-05-19T02:36:50.662Z,21.91
2023-05-19T02:37:22.144Z,21.91
2023-05-19T02:37:53.661Z,21.92
2023-05-19T02:38:25.417Z,21.93
2023-05-19T02:38:57.080Z,21.92
2023-05-19T02:39:28.650Z,21.91
2023-05-19T02:40:00.360Z,21.91
2023-05-19T02:40:32.067Z,21.92
2023-05-19T02:41:03.868Z,21.91
2023-05-19T02:41:35.433Z,21.91
2023-05-19T02:42:07.022Z,21.91
2023-05-19T02:42:38.519Z,21.91
2023-05-19T02:43:10.054Z,21.91
2023-05-19T02:43:41.569Z,21.91
2023-05-19T02:44:13.103Z,21.91
2023-05-19T02:44:44.631Z,21.91
2023-05-19T02:45:16.286Z,21.91
2023-05-19T02:45:47.889Z,21.91
2023-05-19T02:46:19.405Z,21.90
2023-05-19T02:46:51.028Z,21.92
2023-05-19T02:47:22.651Z,21.92
2023-05-19T02:47:54.251Z,21.92
2023-05-19T02:48:25.812Z,21.92
2023-05-19T02:48:57.311Z,21.92
2023-05-19T02:49:28.820Z,21.92
2023-05-19T02:50:00.379Z,21.93
2023-05-19T02:50:32.116Z,21.90
2023-05-19T02:51:04.049Z,21.92
2023-05-19T02:51:35.603Z,21.92
2023-05-19T02:52:07.143Z,21.92
2023-05-19T02:52:38.744Z,21.92
2023-05-19T02:53:10.375Z,21.93
2023-05-19T02:53:41.961Z,21.92
2023-05-19T02:54:13.532Z,21.93
2023-05-19T02:54:45.134Z,21.93
2023-05-19T02:55:16.745Z,21.93
2023-05-19T02:55:48.413Z,21.93
2023-05-19T02:56:20.049Z,21.92
2023-05-19T02:56:51.689Z,21.92
2023-05-19T02:57:23.271Z,21.92
2023-05-19T02:57:54.877Z,21.92
2023-05-19T02:58:26.414Z,21.91
2023-05-19T02:58:57.905Z,21.91
2023-05-19T02:59:29.550Z,21.90
2023-05-19T03:00:01.088Z,21.92
2023-05-19T03:00:32.984Z,21.91
2023-05-19T03:01:04.826Z,21.92
2023-05-19T03:01:36.374Z,21.92
2023-05-19T03:02:07.965Z,21.93
2023-05-19T03:02:39.597Z,21.92
2023-05-19T03:03:11.307Z,21.91
2023-05-19T03:03:42.939Z,21.92
2023-05-19T03:04:14.500Z,21.91
2023-05-19T03:04:46.130Z,21.90
2023-05-19T03:05:17.646Z,21.90
2023-05-19T03:05:49.148Z,21.89
2023-05-19T03:06:20.802Z,21.90
2023-05-19T03:06:52.589Z,21.90
2023-05-19T03:07:24.192Z,21.90
2023-05-19T03:07:55.897Z,21.90
2023-05-19T03:08:27.727Z,21.89
2023-05-19T03:08:59.363Z,21.89
2023-05-19T03:09:30.972Z,21.89
2023-05-19T03:10:02.639Z,21.88
2023-05-19T03:10:34.355Z,21.89
2023-05-19T03:11:05.897Z,21.89
2023-05-19T03:11:37.472Z,21.88
2023-05-19T03:12:09.130Z,21.88
2023-05-19T03:12:40.643Z,21.87
2023-05-19T03:13:12.232Z,21.89
2023-05-19T03:13:43.718Z,21.89
2023-05-19T03:14:15.264Z,21.89
2023-05-19T03:14:46.797Z,21.89
2023-05-19T03:15:18.423Z,21.89
2023-05-19T03:15:50.133Z,21.88
2023-05-19T03:16:21.671Z,21.88
2023-05-19T03:16:53.386Z,21.89
2023-05-19T03:17:25.280Z,21.88
2023-05-19T03:17:57.019Z,21.89
2023-05-19T03:18:28.780Z,21.87
2023-05-19T03:19:00.395Z,21.87
2023-05-19T03:19:31.987Z,21.88
2023-05-19T03:20:03.508Z,21.87
2023-05-19T03:20:35.081Z,21.88
2023-05-19T03:21:06.559Z,21.87
2023-05-19T03:21:38.085Z,21.87
2023-05-19T03:22:12.648Z,21.86
2023-05-19T03:22:44.203Z,21.86
2023-05-19T03:23:15.711Z,21.86
2023-05-19T03:23:47.313Z,21.87
2023-05-19T03:24:18.844Z,21.88
2023-05-19T03:24:50.498Z,21.88
2023-05-19T03:25:22.204Z,21.87
2023-05-19T03:25:53.880Z,21.87
2023-05-19T03:26:25.398Z,21.87
2023-05-19T03:26:56.952Z,21.87
2023-05-19T03:27:28.455Z,21.88
2023-05-19T03:27:59.997Z,21.88
2023-05-19T03:28:31.522Z,21.88
2023-05-19T03:29:03.102Z,21.87
2023-05-19T03:29:34.678Z,21.86
2023-05-19T03:30:06.830Z,21.87
2023-05-19T03:30:38.571Z,21.87
2023-05-19T03:31:10.259Z,21.87
2023-05-19T03:31:41.898Z,21.88
2023-05-19T03:32:13.487Z,21.87
2023-05-19T03:32:48.379Z,21.88
2023-05-19T03:33:20.213Z,21.86
2023-05-19T03:33:51.818Z,21.87
2023-05-19T03:34:23.319Z,21.88
2023-05-19T03:34:54.857Z,21.86
2023-05-19T03:35:26.383Z,21.87
2023-05-19T03:35:58.386Z,21.86
2023-05-19T03:36:30.004Z,21.87
2023-05-19T03:37:01.589Z,21.87
2023-05-19T03:37:33.212Z,21.87
2023-05-19T03:38:04.742Z,21.86
2023-05-19T03:38:36.320Z,21.86
2023-05-19T03:39:07.945Z,21.86
2023-05-19T03:39:39.541Z,21.87
2023-05-19T03:40:11.513Z,21.86
2023-05-19T03:40:43.069Z,21.86
2023-05-19T03:41:14.570Z,21.87
2023-05-19T03:41:46.146Z,21.87
2023-05-19T03:42:17.716Z,21.87
2023-05-19T03:42:49.279Z,21.86
2023-05-19T03:43:20.832Z,21.86
2023-05-19T03:43:52.434Z,21.87
2023-05-19T03:44:23.962Z,21.87
2023-05-19T03:44:55.499Z,21.87
2023-05-19T03:45:27.227Z,21.86
2023-05-19T03:45:58.905Z,21.87
2023-05-19T03:46:30.569Z,21.87
2023-05-19T03:47:02.125Z,21.87
2023-05-19T03:47:33.697Z,21.87
2023-05-19T03:48:05.732Z,21.88
2023-05-19T03:48:37.318Z,21.88
2023-05-19T03:49:08.866Z,21.87
2023-05-19T03:49:40.571Z,21.87
2023-05-19T03:50:12.130Z,21.88
2023-05-19T03:50:43.678Z,21.86
2023-05-19T03:51:15.226Z,21.86
2023-05-19T03:51:46.782Z,21.85
2023-05-19T03:52:18.336Z,21.87
2023-05-19T03:52:49.887Z,21.86
2023-05-19T03:53:21.512Z,21.88
2023-05-19T03:53:53.036Z,21.87
2023-05-19T03:54:24.539Z,21.88
2023-05-19T03:54:56.173Z,21.87
2023-05-19T03:55:27.657Z,21.87
2023-05-19T03:55:59.126Z,21.86
2023-05-19T03:56:30.624Z,21.86
2023-05-19T03:57:02.108Z,21.85
2023-05-19T03:57:33.585Z,21.86
2023-05-19T03:58:05.087Z,21.86
2023-05-19T03:58:36.591Z,21.86
2023-05-19T03:59:08.144Z,21.87
2023-05-19T03:59:39.682Z,21.87
2023-05-19T04:00:11.548Z,21.87
2023-05-19T04:00:43.022Z,21.86
2023-05-19T04:01:14.500Z,21.87
2023-05-19T04:01:46.039Z,21.86
2023-05-19T04:02:17.564Z,21.86
2023-05-19T04:02:49.263Z,21.86
2023-05-19T04:03:21.090Z,21.87
2023-05-19T04:03:52.782Z,21.87
2023-05-19T04:04:24.425Z,21.86
2023-05-19T04:04:55.985Z,21.88
2023-05-19T04:05:27.629Z,21.88
2023-05-19T04:05:59.147Z,21.86
2023-05-19T04:06:30.891Z,21.87
2023-05-19T04:07:02.498Z,21.87
2023-05-19T04:07:34.035Z,21.86
2023-05-19T04:08:05.719Z,21.86
2023-05-19T04:08:37.298Z,21.86
2023-05-19T04:09:14.756Z,21.87
2023-05-19T04:09:46.299Z,21.86
2023-05-19T04:10:17.798Z,21.86
2023-05-19T04:10:49.375Z,21.85
2023-05-19T04:11:20.920Z,21.86
2023-05-19T04:11:52.376Z,21.85
2023-05-19T04:12:23.929Z,21.86
2023-05-19T04:12:55.504Z,21.86
2023-05-19T04:13:27.101Z,21.86
2023-05-19T04:13:58.599Z,21.85
2023-05-19T04:14:30.176Z,21.86
2023-05-19T04:15:01.750Z,21.86
2023-05-19T04:15:33.355Z,21.86
2023-05-19T04:16:05.152Z,21.86
2023-05-19T04:16:36.673Z,21.85
2023-05-19T04:17:08.279Z,21.85
2023-05-19T04:17:39.904Z,21.85
2023-05-19T04:18:11.457Z,21.86
2023-05-19T04:18:43.364Z,21.86
2023-05-19T04:19:15.015Z,21.87
2023-05-19T04:19:46.568Z,21.86
2023-05-19T04:20:18.052Z,21.85
2023-05-19T04:20:49.535Z,21.85
2023-05-19T04:21:21.164Z,21.86
2023-05-19T04:21:52.609Z,21.85
2023-05-19T04:22:24.105Z,21.86
2023-05-19T04:22:55.623Z,21.84
2023-05-19T04:23:27.101Z,21.85
2023-05-19T04:23:58.608Z,21.85
2023-05-19T04:24:30.124Z,21.85
2023-05-19T04:25:01.666Z,21.86
2023-05-19T04:25:33.176Z,21.85
2023-05-19T04:26:04.745Z,21.87
2023-05-19T04:26:36.245Z,21.86
2023-05-19T04:27:07.748Z,21.85
2023-05-19T04:27:39.326Z,21.85
2023-05-19T04:28:10.906Z,21.85
2023-05-19T04:28:42.546Z,21.84
2023-05-19T04:29:14.167Z,21.85
2023-05-19T04:29:45.686Z,21.85
2023-05-19T04:30:18.423Z,21.84
2023-05-19T04:30:50.302Z,21.86
2023-05-19T04:31:21.970Z,21.86
2023-05-19T04:31:53.590Z,21.86
2023-05-19T04:32:25.132Z,21.86
2023-05-19T04:32:56.732Z,21.86
2023-05-19T04:33:28.259Z,21.86
2023-05-19T04:33:59.798Z,21.85
2023-05-19T04:34:31.349Z,21.86
2023-05-19T04:35:03.047Z,21.86
2023-05-19T04:35:34.682Z,21.86
2023-05-19T04:36:06.659Z,21.85
2023-05-19T04:36:38.154Z,21.85
2023-05-19T04:37:09.687Z,21.85
2023-05-19T04:37:41.240Z,21.84
2023-05-19T04:38:12.784Z,21.84
2023-05-19T04:38:44.488Z,21.85
2023-05-19T04:39:15.955Z,21.86
2023-05-19T04:39:47.563Z,21.86
2023-05-19T04:40:19.174Z,21.86
2023-05-19T04:40:50.713Z,21.85
2023-05-19T04:41:22.256Z,21.85
2023-05-19T04:41:53.829Z,21.86
2023-05-19T04:42:25.344Z,21.85
2023-05-19T04:42:57.166Z,21.86
2023-05-19T04:43:28.783Z,21.85
2023-05-19T04:44:00.401Z,21.85
2023-05-19T04:44:31.874Z,21.85
2023-05-19T04:45:03.552Z,21.84
2023-05-19T04:45:35.015Z,21.84
2023-05-19T04:46:06.623Z,21.85
2023-05-19T04:46:38.169Z,21.85
2023-05-19T04:47:09.873Z,21.85
2023-05-19T04:47:41.489Z,21.85
2023-05-19T04:48:13.059Z,21.86
2023-05-19T04:48:44.624Z,21.86
2023-05-19T04:49:16.131Z,21.85
2023-05-19T04:49:47.696Z,21.86
2023-05-19T04:50:19.262Z,21.84
2023-05-19T04:50:50.750Z,21.84
2023-05-19T04:51:22.275Z,21.85
2023-05-19T04:51:55.707Z,21.84
2023-05-19T04:52:27.547Z,21.85
2023-05-19T04:52:59.108Z,21.85
2023-05-19T04:53:30.625Z,21.86
2023-05-19T04:54:02.103Z,21.85
2023-05-19T04:54:34.722Z,21.85
2023-05-19T04:55:06.395Z,21.84
2023-05-19T04:55:37.936Z,21.84
2023-05-19T04:56:09.583Z,21.85
2023-05-19T04:56:41.097Z,21.86
2023-05-19T04:57:12.665Z,21.86
2023-05-19T04:57:44.142Z,21.85
2023-05-19T04:58:15.713Z,21.85
2023-05-19T04:58:47.226Z,21.85
2023-05-19T04:59:18.713Z,21.84
2023-05-19T04:59:50.225Z,21.85
2023-05-19T05:00:21.764Z,21.85
2023-05-19T05:00:53.682Z,21.85
2023-05-19T05:01:25.236Z,21.85
2023-05-19T05:01:56.951Z,21.85
2023-05-19T05:02:28.573Z,21.85
2023-05-19T05:03:00.260Z,21.85
2023-05-19T05:03:32.029Z,21.86
2023-05-19T05:04:03.854Z,21.86
2023-05-19T05:04:35.468Z,21.84
2023-05-19T05:05:07.291Z,21.84
2023-05-19T05:05:38.869Z,21.84
2023-05-19T05:06:10.433Z,21.84
2023-05-19T05:06:41.966Z,21.86
2023-05-19T05:07:13.770Z,21.84
2023-05-19T05:07:45.356Z,21.85
2023-05-19T05:08:16.906Z,21.86
2023-05-19T05:08:48.796Z,21.86
2023-05-19T05:09:20.383Z,21.84
2023-05-19T05:09:51.934Z,21.84
2023-05-19T05:10:23.529Z,21.86
2023-05-19T05:10:55.229Z,21.85
2023-05-19T05:11:26.926Z,21.85
2023-05-19T05:11:58.600Z,21.83
2023-05-19T05:12:30.266Z,21.84
2023-05-19T05:13:01.851Z,21.85
2023-05-19T05:13:33.518Z,21.85
2023-05-19T05:14:05.155Z,21.86
2023-05-19T05:14:36.788Z,21.85
2023-05-19T05:15:08.903Z,21.84
2023-05-19T05:15:40.532Z,21.85
2023-05-19T05:16:12.464Z,21.85
2023-05-19T05:16:44.380Z,21.85
2023-05-19T05:17:16.134Z,21.85
2023-05-19T05:17:47.797Z,21.85
2023-05-19T05:18:19.465Z,21.83
2023-05-19T05:18:51.089Z,21.84
2023-05-19T05:19:23.066Z,21.84
2023-05-19T05:19:54.795Z,21.84
2023-05-19T05:20:26.553Z,21.85
2023-05-19T05:20:58.112Z,21.86
2023-05-19T05:21:30.059Z,21.85
2023-05-19T05:22:01.790Z,21.84
2023-05-19T05:22:33.574Z,21.85
2023-05-19T05:23:05.187Z,21.84
2023-05-19T05:23:36.848Z,21.85
2023-05-19T05:24:08.884Z,21.83
2023-05-19T05:24:40.508Z,21.82
2023-05-19T05:25:12.584Z,21.84
2023-05-19T05:25:44.280Z,21.84
2023-05-19T05:26:18.703Z,21.85
2023-05-19T05:26:50.386Z,21.85
2023-05-19T05:27:21.869Z,21.86
2023-05-19T05:27:53.392Z,21.85
2023-05-19T05:28:24.910Z,21.86
2023-05-19T05:28:56.427Z,21.86
2023-05-19T05:29:27.912Z,21.86
2023-05-19T05:29:59.511Z,21.86
2023-05-19T05:30:31.093Z,21.86
2023-05-19T05:31:02.603Z,21.87
2023-05-19T05:31:34.133Z,21.86
2023-05-19T05:32:05.793Z,21.86
2023-05-19T05:32:37.532Z,21.85
2023-05-19T05:33:09.326Z,21.85
2023-05-19T05:33:41.081Z,21.85
2023-05-19T05:34:12.644Z,21.84
2023-05-19T05:34:44.149Z,21.85
2023-05-19T05:35:15.659Z,21.84
2023-05-19T05:35:47.182Z,21.84
2023-05-19T05:36:18.695Z,21.85
2023-05-19T05:36:50.240Z,21.85
2023-05-19T05:37:21.741Z,21.85
2023-05-19T05:37:53.246Z,21.85
2023-05-19T05:38:24.833Z,21.85
2023-05-19T05:38:56.334Z,21.85
2023-05-19T05:39:27.804Z,21.85
2023-05-19T05:39:59.407Z,21.85
2023-05-19T05:40:30.974Z,21.85
2023-05-19T05:41:02.593Z,21.84
2023-05-19T05:41:34.110Z,21.85
2023-05-19T05:42:05.732Z,21.84
2023-05-19T05:42:37.296Z,21.84
2023-05-19T05:43:08.825Z,21.84
2023-05-19T05:43:40.372Z,21.84
2023-05-19T05:44:11.935Z,21.85
2023-05-19T05:44:43.439Z,21.84
2023-05-19T05:45:14.905Z,21.84
2023-05-19T05:45:46.435Z,21.83
2023-05-19T05:46:18.001Z,21.84
2023-05-19T05:46:49.729Z,21.85
2023-05-19T05:47:21.438Z,21.85
2023-05-19T05:47:53.129Z,21.85
2023-05-19T05:48:24.908Z,21.85
2023-05-19T05:48:56.519Z,21.84
2023-05-19T05:49:28.235Z,21.83
2023-05-19T05:49:59.914Z,21.85
2023-05-19T05:50:31.673Z,21.84
2023-05-19T05:51:03.389Z,21.85
2023-05-19T05:51:34.999Z,21.85
2023-05-19T05:52:07.055Z,21.86
2023-05-19T05:52:38.635Z,21.85
2023-05-19T05:53:10.182Z,21.85
2023-05-19T05:53:41.876Z,21.85
2023-05-19T05:54:13.686Z,21.85
2023-05-19T05:54:45.283Z,21.84
2023-05-19T05:55:16.933Z,21.83
2023-05-19T05:55:48.537Z,21.85
2023-05-19T05:56:20.284Z,21.84
2023-05-19T05:56:51.974Z,21.83
2023-05-19T05:57:23.511Z,21.84
2023-05-19T05:57:55.088Z,21.84
2023-05-19T05:58:27.798Z,21.84
2023-05-19T05:58:59.632Z,21.84
2023-05-19T05:59:31.183Z,21.83
2023-05-19T06:00:02.824Z,21.83
2023-05-19T06:00:34.786Z,21.84
2023-05-19T06:01:06.867Z,21.84
2023-05-19T06:01:38.378Z,21.83
2023-05-19T06:02:09.936Z,21.84
2023-05-19T06:02:47.201Z,21.83
2023-05-19T06:03:18.978Z,21.82
2023-05-19T06:03:50.810Z,21.84
2023-05-19T06:04:22.334Z,21.84
2023-05-19T06:04:53.923Z,21.83
2023-05-19T06:05:25.536Z,21.84
2023-05-19T06:05:57.212Z,21.84
2023-05-19T06:06:28.824Z,21.84
2023-05-19T06:07:00.358Z,21.84
2023-05-19T06:07:32.075Z,21.85
2023-05-19T06:08:03.858Z,21.84
2023-05-19T06:08:35.442Z,21.84
2023-05-19T06:09:07.188Z,21.84
2023-05-19T06:09:38.708Z,21.84
2023-05-19T06:10:10.325Z,21.84
2023-05-19T06:10:41.951Z,21.84
2023-05-19T06:11:13.440Z,21.84
2023-05-19T06:11:44.883Z,21.84
2023-05-19T06:12:16.487Z,21.84
2023-05-19T06:12:48.004Z,21.84
2023-05-19T06:13:19.529Z,21.84
2023-05-19T06:13:51.052Z,21.84
2023-05-19T06:14:22.615Z,21.84
2023-05-19T06:14:54.160Z,21.84
2023-05-19T06:15:25.680Z,21.83
2023-05-19T06:15:58.047Z,21.83
2023-05-19T06:16:30.389Z,21.83
2023-05-19T06:17:01.950Z,21.83
2023-05-19T06:17:33.757Z,21.82
2023-05-19T06:18:05.352Z,21.83
2023-05-19T06:18:36.981Z,21.83
2023-05-19T06:19:08.684Z,21.84
2023-05-19T06:19:40.184Z,21.84
2023-05-19T06:20:12.152Z,21.83
2023-05-19T06:20:43.650Z,21.83
2023-05-19T06:21:15.189Z,21.84
2023-05-19T06:21:46.720Z,21.83
2023-05-19T06:22:18.179Z,21.84
2023-05-19T06:22:49.758Z,21.84
2023-05-19T06:23:21.388Z,21.85
2023-05-19T06:23:52.939Z,21.84
2023-05-19T06:24:24.585Z,21.84
2023-05-19T06:24:56.137Z,21.84
2023-05-19T06:25:27.722Z,21.84
2023-05-19T06:25:59.270Z,21.84
2023-05-19T06:26:30.853Z,21.84
2023-05-19T06:27:02.358Z,21.84
2023-05-19T06:27:34.904Z,21.85
2023-05-19T06:28:06.715Z,21.84
2023-05-19T06:28:38.243Z,21.83
2023-05-19T06:29:09.822Z,21.83
2023-05-19T06:29:41.382Z,21.83
2023-05-19T06:30:13.234Z,21.83
2023-05-19T06:30:44.776Z,21.84
2023-05-19T06:31:16.298Z,21.84
2023-05-19T06:31:47.975Z,21.85
2023-05-19T06:32:19.577Z,21.84
2023-05-19T06:32:51.359Z,21.83
2023-05-19T06:33:22.822Z,21.84
2023-05-19T06:33:54.436Z,21.83
2023-05-19T06:34:25.988Z,21.82
2023-05-19T06:34:57.653Z,21.82
2023-05-19T06:35:29.644Z,21.84
2023-05-19T06:36:01.195Z,21.83
2023-05-19T06:36:32.723Z,21.84
2023-05-19T06:37:04.290Z,21.84
2023-05-19T06:37:35.778Z,21.83
2023-05-19T06:38:07.244Z,21.83
2023-05-19T06:38:38.842Z,21.85
2023-05-19T06:39:10.371Z,21.83
2023-05-19T06:39:41.903Z,21.84
2023-05-19T06:40:13.562Z,21.83
2023-05-19T06:40:45.100Z,21.83
2023-05-19T06:41:16.657Z,21.83
2023-05-19T06:41:48.101Z,21.85
2023-05-19T06:42:19.849Z,21.84
2023-05-19T06:42:51.635Z,21.83
2023-05-19T06:43:23.170Z,21.84
2023-05-19T06:43:54.798Z,21.83
2023-05-19T06:44:26.309Z,21.83
2023-05-19T06:44:57.907Z,21.84
2023-05-19T06:45:29.485Z,21.84
2023-05-19T06:46:01.021Z,21.84
2023-05-19T06:46:32.514Z,21.84
2023-05-19T06:47:04.217Z,21.83
2023-05-19T06:47:35.923Z,21.84
2023-05-19T06:48:07.476Z,21.85
2023-05-19T06:48:39.184Z,21.84
2023-05-19T06:49:10.937Z,21.83
2023-05-19T06:49:42.483Z,21.84
2023-05-19T06:50:13.961Z,21.84
2023-05-19T06:50:45.583Z,21.84
2023-05-19T06:51:17.145Z,21.83
2023-05-19T06:51:48.665Z,21.84
2023-05-19T06:52:20.218Z,21.83
2023-05-19T06:52:51.812Z,21.83
2023-05-19T06:53:23.359Z,21.83
2023-05-19T06:53:54.868Z,21.83
2023-05-19T06:54:26.388Z,21.84
2023-05-19T06:54:57.950Z,21.86